sensor_id;sensor_type;location;lat;lon;timestamp;temperature;humidity
6752;DHT22;3413;47.680;9.166;2023-10-13T00:04:45;21.20;70.70
6752;DHT22;3413;47.680;9.166;2023-10-13T00:09:48;21.20;70.70
6752;DHT22;3413;47.680;9.166;2023-10-13T00:14:49;21.20;71.10
6752;DHT22;3413;47.680;9.166;2023-10-13T00:19:52;21.10;70.50
6752;DHT22;3413;47.680;9.166;2023-10-13T00:24:55;21.00;70.50
6752;DHT22;3413;47.680;9.166;2023-10-13T00:30:03;21.00;70.60
6752;DHT22;3413;47.680;9.166;2023-10-13T00:35:28;20.80;70.40
6752;DHT22;3413;47.680;9.166;2023-10-13T00:40:31;20.80;70.60
6752;DHT22;3413;47.680;9.166;2023-10-13T00:45:34;20.70;70.60
6752;DHT22;3413;47.680;9.166;2023-10-13T00:50:36;20.60;70.60
6752;DHT22;3413;47.680;9.166;2023-10-13T00:55:39;20.50;70.80
6752;DHT22;3413;47.680;9.166;2023-10-13T01:00:43;20.50;70.90
6752;DHT22;3413;47.680;9.166;2023-10-13T01:05:58;20.40;71.00
6752;DHT22;3413;47.680;9.166;2023-10-13T01:11:01;20.40;71.10
6752;DHT22;3413;47.680;9.166;2023-10-13T01:16:03;20.50;71.20
6752;DHT22;3413;47.680;9.166;2023-10-13T01:21:06;20.30;71.20
6752;DHT22;3413;47.680;9.166;2023-10-13T01:26:08;20.20;71.10
6752;DHT22;3413;47.680;9.166;2023-10-13T01:31:11;20.20;71.90
6752;DHT22;3413;47.680;9.166;2023-10-13T01:36:26;20.10;71.30
6752;DHT22;3413;47.680;9.166;2023-10-13T01:41:29;20.00;71.20
6752;DHT22;3413;47.680;9.166;2023-10-13T01:46:32;20.10;71.40
6752;DHT22;3413;47.680;9.166;2023-10-13T01:51:38;20.10;71.30
6752;DHT22;3413;47.680;9.166;2023-10-13T01:56:41;20.10;71.30
6752;DHT22;3413;47.680;9.166;2023-10-13T02:01:46;20.00;71.20
6752;DHT22;3413;47.680;9.166;2023-10-13T02:06:48;20.00;71.30
6752;DHT22;3413;47.680;9.166;2023-10-13T02:11:50;19.90;71.30
6752;DHT22;3413;47.680;9.166;2023-10-13T02:16:56;19.80;71.30
6752;DHT22;3413;47.680;9.166;2023-10-13T02:22:14;19.80;71.40
6752;DHT22;3413;47.680;9.166;2023-10-13T02:27:33;19.70;71.30
6752;DHT22;3413;47.680;9.166;2023-10-13T02:32:42;19.60;71.30
6752;DHT22;3413;47.680;9.166;2023-10-13T02:37:45;19.50;71.30
6752;DHT22;3413;47.680;9.166;2023-10-13T02:42:56;19.40;71.30
6752;DHT22;3413;47.680;9.166;2023-10-13T02:47:58;19.20;71.30
6752;DHT22;3413;47.680;9.166;2023-10-13T02:53:19;19.00;71.30
6752;DHT22;3413;47.680;9.166;2023-10-13T02:58:20;18.80;71.40
6752;DHT22;3413;47.680;9.166;2023-10-13T03:03:22;18.70;71.40
6752;DHT22;3413;47.680;9.166;2023-10-13T03:08:24;18.70;71.50
6752;DHT22;3413;47.680;9.166;2023-10-13T03:13:29;18.60;71.40
6752;DHT22;3413;47.680;9.166;2023-10-13T03:18:31;18.60;71.50
6752;DHT22;3413;47.680;9.166;2023-10-13T03:23:36;18.60;71.50
6752;DHT22;3413;47.680;9.166;2023-10-13T03:28:47;18.50;71.50
6752;DHT22;3413;47.680;9.166;2023-10-13T03:33:57;18.50;71.60
6752;DHT22;3413;47.680;9.166;2023-10-13T03:39:01;18.50;71.50
6752;DHT22;3413;47.680;9.166;2023-10-13T03:44:09;18.50;71.50
6752;DHT22;3413;47.680;9.166;2023-10-13T03:49:19;18.50;71.60
6752;DHT22;3413;47.680;9.166;2023-10-13T03:54:27;18.50;71.50
6752;DHT22;3413;47.680;9.166;2023-10-13T03:59:32;18.40;71.50
6752;DHT22;3413;47.680;9.166;2023-10-13T04:04:37;18.40;71.50
6752;DHT22;3413;47.680;9.166;2023-10-13T04:09:51;18.30;71.40
6752;DHT22;3413;47.680;9.166;2023-10-13T04:15:12;18.30;71.50
6752;DHT22;3413;47.680;9.166;2023-10-13T04:20:17;18.20;71.30
6752;DHT22;3413;47.680;9.166;2023-10-13T04:25:39;18.10;71.40
6752;DHT22;3413;47.680;9.166;2023-10-13T04:30:49;18.00;71.50
6752;DHT22;3413;47.680;9.166;2023-10-13T04:36:11;17.90;71.40
6752;DHT22;3413;47.680;9.166;2023-10-13T04:41:18;17.90;71.50
6752;DHT22;3413;47.680;9.166;2023-10-13T04:46:24;17.80;71.40
6752;DHT22;3413;47.680;9.166;2023-10-13T04:51:56;17.70;71.50
6752;DHT22;3413;47.680;9.166;2023-10-13T04:57:18;17.60;71.40
6752;DHT22;3413;47.680;9.166;2023-10-13T05:02:33;17.50;71.30
6752;DHT22;3413;47.680;9.166;2023-10-13T05:07:37;17.50;71.40
6752;DHT22;3413;47.680;9.166;2023-10-13T05:12:58;17.50;71.30
6752;DHT22;3413;47.680;9.166;2023-10-13T05:18:19;17.50;71.40
6752;DHT22;3413;47.680;9.166;2023-10-13T05:23:39;17.50;71.50
6752;DHT22;3413;47.680;9.166;2023-10-13T05:28:59;17.50;71.50
6752;DHT22;3413;47.680;9.166;2023-10-13T05:34:30;17.40;72.10
6752;DHT22;3413;47.680;9.166;2023-10-13T05:39:50;17.30;71.40
6752;DHT22;3413;47.680;9.166;2023-10-13T05:45:11;17.30;71.50
6752;DHT22;3413;47.680;9.166;2023-10-13T05:50:19;17.30;71.50
6752;DHT22;3413;47.680;9.166;2023-10-13T05:55:29;17.20;71.40
6752;DHT22;3413;47.680;9.166;2023-10-13T06:00:49;17.20;71.50
6752;DHT22;3413;47.680;9.166;2023-10-13T06:06:10;17.30;71.60
6752;DHT22;3413;47.680;9.166;2023-10-13T06:11:31;17.30;71.50
6752;DHT22;3413;47.680;9.166;2023-10-13T06:16:51;17.20;71.40
6752;DHT22;3413;47.680;9.166;2023-10-13T06:22:12;17.20;71.40
6752;DHT22;3413;47.680;9.166;2023-10-13T06:27:32;17.20;71.50
6752;DHT22;3413;47.680;9.166;2023-10-13T06:32:53;17.30;71.70
6752;DHT22;3413;47.680;9.166;2023-10-13T06:37:55;17.30;71.70
6752;DHT22;3413;47.680;9.166;2023-10-13T06:43:02;17.30;71.80
6752;DHT22;3413;47.680;9.166;2023-10-13T06:48:15;17.40;71.90
6752;DHT22;3413;47.680;9.166;2023-10-13T06:53:19;17.40;72.00
6752;DHT22;3413;47.680;9.166;2023-10-13T06:58:21;17.50;72.20
6752;DHT22;3413;47.680;9.166;2023-10-13T07:03:26;17.60;72.40
6752;DHT22;3413;47.680;9.166;2023-10-13T07:08:28;17.70;72.50
6752;DHT22;3413;47.680;9.166;2023-10-13T07:13:33;17.80;72.70
6752;DHT22;3413;47.680;9.166;2023-10-13T07:18:40;18.00;72.90
6752;DHT22;3413;47.680;9.166;2023-10-13T07:23:56;18.10;73.10
6752;DHT22;3413;47.680;9.166;2023-10-13T07:29:13;18.30;73.30
6752;DHT22;3413;47.680;9.166;2023-10-13T07:34:16;18.40;73.30
6752;DHT22;3413;47.680;9.166;2023-10-13T07:39:33;18.50;73.60
6752;DHT22;3413;47.680;9.166;2023-10-13T07:44:37;18.80;73.70
6752;DHT22;3413;47.680;9.166;2023-10-13T07:49:42;19.00;74.00
6752;DHT22;3413;47.680;9.166;2023-10-13T07:54:49;19.20;74.20
6752;DHT22;3413;47.680;9.166;2023-10-13T07:59:52;19.30;74.40
6752;DHT22;3413;47.680;9.166;2023-10-13T08:05:13;19.70;74.90
6752;DHT22;3413;47.680;9.166;2023-10-13T08:10:18;20.50;76.40
6752;DHT22;3413;47.680;9.166;2023-10-13T08:15:26;21.40;78.00
6752;DHT22;3413;47.680;9.166;2023-10-13T08:20:39;22.60;79.40
6752;DHT22;3413;47.680;9.166;2023-10-13T08:25:41;23.90;79.80
6752;DHT22;3413;47.680;9.166;2023-10-13T08:31:16;24.50;79.50
6752;DHT22;3413;47.680;9.166;2023-10-13T08:36:24;25.20;80.00
6752;DHT22;3413;47.680;9.166;2023-10-13T08:41:30;25.90;80.60
6752;DHT22;3413;47.680;9.166;2023-10-13T08:46:33;26.50;81.10
6752;DHT22;3413;47.680;9.166;2023-10-13T08:52:07;27.10;81.40
6752;DHT22;3413;47.680;9.166;2023-10-13T08:57:31;27.50;81.40
6752;DHT22;3413;47.680;9.166;2023-10-13T09:02:36;27.90;81.50
6752;DHT22;3413;47.680;9.166;2023-10-13T09:07:56;28.30;81.10
6752;DHT22;3413;47.680;9.166;2023-10-13T09:13:10;28.70;80.80
6752;DHT22;3413;47.680;9.166;2023-10-13T09:18:25;29.00;80.40
6752;DHT22;3413;47.680;9.166;2023-10-13T09:23:48;29.20;80.40
6752;DHT22;3413;47.680;9.166;2023-10-13T09:28:50;29.40;80.30
6752;DHT22;3413;47.680;9.166;2023-10-13T09:33:55;29.50;80.00
6752;DHT22;3413;47.680;9.166;2023-10-13T09:38:58;29.70;79.70
6752;DHT22;3413;47.680;9.166;2023-10-13T09:44:31;30.30;78.50
6752;DHT22;3413;47.680;9.166;2023-10-13T09:49:39;30.40;77.00
6752;DHT22;3413;47.680;9.166;2023-10-13T10:00:31;30.10;76.70
6752;DHT22;3413;47.680;9.166;2023-10-13T10:05:43;29.80;76.70
6752;DHT22;3413;47.680;9.166;2023-10-13T10:10:59;29.80;76.60
6752;DHT22;3413;47.680;9.166;2023-10-13T10:16:11;29.80;75.80
6752;DHT22;3413;47.680;9.166;2023-10-13T10:21:16;29.80;75.70
6752;DHT22;3413;47.680;9.166;2023-10-13T10:26:22;29.80;75.30
6752;DHT22;3413;47.680;9.166;2023-10-13T10:31:31;29.80;75.00
6752;DHT22;3413;47.680;9.166;2023-10-13T10:36:52;29.70;74.30
6752;DHT22;3413;47.680;9.166;2023-10-13T10:41:54;29.60;74.20
6752;DHT22;3413;47.680;9.166;2023-10-13T10:47:15;29.70;74.00
6752;DHT22;3413;47.680;9.166;2023-10-13T10:52:34;29.60;74.10
6752;DHT22;3413;47.680;9.166;2023-10-13T10:57:41;29.60;74.20
6752;DHT22;3413;47.680;9.166;2023-10-13T11:02:55;29.40;73.90
6752;DHT22;3413;47.680;9.166;2023-10-13T11:07:58;29.40;73.70
6752;DHT22;3413;47.680;9.166;2023-10-13T11:13:00;29.50;74.00
6752;DHT22;3413;47.680;9.166;2023-10-13T11:18:30;29.50;74.00
6752;DHT22;3413;47.680;9.166;2023-10-13T11:23:42;29.20;73.80
6752;DHT22;3413;47.680;9.166;2023-10-13T11:28:50;29.30;73.80
6752;DHT22;3413;47.680;9.166;2023-10-13T11:33:53;29.40;73.80
6752;DHT22;3413;47.680;9.166;2023-10-13T11:38:58;29.50;73.70
6752;DHT22;3413;47.680;9.166;2023-10-13T11:44:00;29.60;73.50
6752;DHT22;3413;47.680;9.166;2023-10-13T11:49:25;29.00;73.20
6752;DHT22;3413;47.680;9.166;2023-10-13T11:54:30;28.90;73.50
6752;DHT22;3413;47.680;9.166;2023-10-13T11:59:31;29.10;73.60
6752;DHT22;3413;47.680;9.166;2023-10-13T12:04:38;29.20;73.60
6752;DHT22;3413;47.680;9.166;2023-10-13T12:09:48;29.40;73.00
6752;DHT22;3413;47.680;9.166;2023-10-13T12:14:56;29.70;73.10
6752;DHT22;3413;47.680;9.166;2023-10-13T12:19:58;29.90;72.80
6752;DHT22;3413;47.680;9.166;2023-10-13T12:25:07;30.10;72.80
6752;DHT22;3413;47.680;9.166;2023-10-13T12:30:36;30.20;72.80
6752;DHT22;3413;47.680;9.166;2023-10-13T12:35:57;30.10;72.20
6752;DHT22;3413;47.680;9.166;2023-10-13T12:41:14;29.80;72.50
6752;DHT22;3413;47.680;9.166;2023-10-13T12:46:37;29.90;72.60
6752;DHT22;3413;47.680;9.166;2023-10-13T12:52:02;30.10;72.60
6752;DHT22;3413;47.680;9.166;2023-10-13T12:57:04;30.20;72.40
6752;DHT22;3413;47.680;9.166;2023-10-13T13:02:11;30.10;72.20
6752;DHT22;3413;47.680;9.166;2023-10-13T13:07:17;30.10;71.90
6752;DHT22;3413;47.680;9.166;2023-10-13T13:12:19;30.00;72.30
6752;DHT22;3413;47.680;9.166;2023-10-13T13:17:21;30.00;71.80
6752;DHT22;3413;47.680;9.166;2023-10-13T13:22:24;30.30;71.60
6752;DHT22;3413;47.680;9.166;2023-10-13T13:27:26;30.10;71.60
6752;DHT22;3413;47.680;9.166;2023-10-13T13:32:29;30.20;71.40
6752;DHT22;3413;47.680;9.166;2023-10-13T13:37:31;30.30;71.10
6752;DHT22;3413;47.680;9.166;2023-10-13T13:42:33;30.40;71.20
6752;DHT22;3413;47.680;9.166;2023-10-13T13:47:38;30.60;71.00
6752;DHT22;3413;47.680;9.166;2023-10-13T13:52:40;30.80;71.10
6752;DHT22;3413;47.680;9.166;2023-10-13T13:57:47;31.00;71.00
6752;DHT22;3413;47.680;9.166;2023-10-13T14:02:52;31.20;71.10
6752;DHT22;3413;47.680;9.166;2023-10-13T14:07:54;31.40;71.10
6752;DHT22;3413;47.680;9.166;2023-10-13T14:13:00;31.70;70.70
6752;DHT22;3413;47.680;9.166;2023-10-13T14:18:14;31.50;70.40
6752;DHT22;3413;47.680;9.166;2023-10-13T14:23:19;31.50;70.20
6752;DHT22;3413;47.680;9.166;2023-10-13T14:28:24;31.50;70.00
6752;DHT22;3413;47.680;9.166;2023-10-13T14:33:34;31.50;69.50
6752;DHT22;3413;47.680;9.166;2023-10-13T14:38:36;31.60;69.30
6752;DHT22;3413;47.680;9.166;2023-10-13T14:43:38;31.50;68.90
6752;DHT22;3413;47.680;9.166;2023-10-13T14:48:40;31.50;68.50
6752;DHT22;3413;47.680;9.166;2023-10-13T14:53:42;31.40;68.10
6752;DHT22;3413;47.680;9.166;2023-10-13T14:58:45;31.30;67.80
6752;DHT22;3413;47.680;9.166;2023-10-13T15:03:49;31.30;67.50
6752;DHT22;3413;47.680;9.166;2023-10-13T15:08:59;31.30;67.40
6752;DHT22;3413;47.680;9.166;2023-10-13T15:14:05;31.50;67.30
6752;DHT22;3413;47.680;9.166;2023-10-13T15:19:10;31.50;66.70
6752;DHT22;3413;47.680;9.166;2023-10-13T15:24:12;31.40;66.30
6752;DHT22;3413;47.680;9.166;2023-10-13T15:29:27;31.20;66.20
6752;DHT22;3413;47.680;9.166;2023-10-13T15:34:40;31.10;66.10
6752;DHT22;3413;47.680;9.166;2023-10-13T15:39:42;31.00;65.70
6752;DHT22;3413;47.680;9.166;2023-10-13T15:44:44;30.80;65.20
6752;DHT22;3413;47.680;9.166;2023-10-13T15:49:45;30.60;64.90
6752;DHT22;3413;47.680;9.166;2023-10-13T15:54:48;30.40;64.80
6752;DHT22;3413;47.680;9.166;2023-10-13T15:59:50;30.20;64.90
6752;DHT22;3413;47.680;9.166;2023-10-13T16:04:51;30.20;64.30
6752;DHT22;3413;47.680;9.166;2023-10-13T16:09:56;30.10;64.00
6752;DHT22;3413;47.680;9.166;2023-10-13T16:15:00;29.90;63.70
6752;DHT22;3413;47.680;9.166;2023-10-13T16:20:03;29.70;64.30
6752;DHT22;3413;47.680;9.166;2023-10-13T16:25:14;29.60;63.50
6752;DHT22;3413;47.680;9.166;2023-10-13T16:30:20;29.40;63.30
6752;DHT22;3413;47.680;9.166;2023-10-13T16:35:22;29.10;63.10
6752;DHT22;3413;47.680;9.166;2023-10-13T16:40:24;28.70;63.00
6752;DHT22;3413;47.680;9.166;2023-10-13T16:45:27;28.40;63.00
6752;DHT22;3413;47.680;9.166;2023-10-13T16:50:33;28.30;62.70
6752;DHT22;3413;47.680;9.166;2023-10-13T16:55:39;28.10;62.60
6752;DHT22;3413;47.680;9.166;2023-10-13T17:00:44;27.90;62.60
6752;DHT22;3413;47.680;9.166;2023-10-13T17:05:53;27.80;62.50
6752;DHT22;3413;47.680;9.166;2023-10-13T17:10:56;27.80;62.50
6752;DHT22;3413;47.680;9.166;2023-10-13T17:16:16;27.60;62.30
6752;DHT22;3413;47.680;9.166;2023-10-13T17:21:21;27.50;62.20
6752;DHT22;3413;47.680;9.166;2023-10-13T17:26:35;27.40;62.20
6752;DHT22;3413;47.680;9.166;2023-10-13T17:31:37;27.50;62.00
6752;DHT22;3413;47.680;9.166;2023-10-13T17:36:39;27.30;61.80
6752;DHT22;3413;47.680;9.166;2023-10-13T17:41:41;27.10;61.90
6752;DHT22;3413;47.680;9.166;2023-10-13T17:46:43;26.50;62.10
6752;DHT22;3413;47.680;9.166;2023-10-13T17:51:45;26.10;61.90
6752;DHT22;3413;47.680;9.166;2023-10-13T17:56:47;25.70;61.80
6752;DHT22;3413;47.680;9.166;2023-10-13T18:01:49;25.40;61.60
6752;DHT22;3413;47.680;9.166;2023-10-13T18:06:51;25.20;61.60
6752;DHT22;3413;47.680;9.166;2023-10-13T18:11:54;25.10;61.50
6752;DHT22;3413;47.680;9.166;2023-10-13T18:16:56;25.10;61.30
6752;DHT22;3413;47.680;9.166;2023-10-13T18:21:58;25.20;61.20
6752;DHT22;3413;47.680;9.166;2023-10-13T18:27:00;25.20;61.20
6752;DHT22;3413;47.680;9.166;2023-10-13T18:32:03;25.20;61.00
6752;DHT22;3413;47.680;9.166;2023-10-13T18:37:06;25.30;61.00
6752;DHT22;3413;47.680;9.166;2023-10-13T18:42:11;25.40;61.10
6752;DHT22;3413;47.680;9.166;2023-10-13T18:47:14;25.30;61.00
6752;DHT22;3413;47.680;9.166;2023-10-13T18:52:16;25.30;61.00
6752;DHT22;3413;47.680;9.166;2023-10-13T18:57:18;25.30;60.90
6752;DHT22;3413;47.680;9.166;2023-10-13T19:02:20;25.40;60.90
6752;DHT22;3413;47.680;9.166;2023-10-13T19:07:22;25.60;60.90
6752;DHT22;3413;47.680;9.166;2023-10-13T19:12:24;25.70;60.90
6752;DHT22;3413;47.680;9.166;2023-10-13T19:17:26;25.80;60.80
6752;DHT22;3413;47.680;9.166;2023-10-13T19:22:28;25.80;60.80
6752;DHT22;3413;47.680;9.166;2023-10-13T19:27:32;25.80;60.80
6752;DHT22;3413;47.680;9.166;2023-10-13T19:32:35;25.80;60.80
6752;DHT22;3413;47.680;9.166;2023-10-13T19:37:41;25.60;60.90
6752;DHT22;3413;47.680;9.166;2023-10-13T19:42:44;25.40;60.90
6752;DHT22;3413;47.680;9.166;2023-10-13T19:47:46;25.30;60.90
6752;DHT22;3413;47.680;9.166;2023-10-13T19:52:48;25.30;60.80
6752;DHT22;3413;47.680;9.166;2023-10-13T19:57:53;25.30;60.70
6752;DHT22;3413;47.680;9.166;2023-10-13T20:02:55;25.40;60.80
6752;DHT22;3413;47.680;9.166;2023-10-13T20:07:57;25.40;60.70
6752;DHT22;3413;47.680;9.166;2023-10-13T20:12:59;25.40;60.70
6752;DHT22;3413;47.680;9.166;2023-10-13T20:18:03;25.40;60.70
6752;DHT22;3413;47.680;9.166;2023-10-13T20:23:13;25.40;60.70
6752;DHT22;3413;47.680;9.166;2023-10-13T20:28:15;25.40;60.80
6752;DHT22;3413;47.680;9.166;2023-10-13T20:33:18;25.30;60.80
6752;DHT22;3413;47.680;9.166;2023-10-13T20:38:24;25.30;60.80
6752;DHT22;3413;47.680;9.166;2023-10-13T20:43:30;25.30;60.80
6752;DHT22;3413;47.680;9.166;2023-10-13T20:48:32;25.20;60.80
6752;DHT22;3413;47.680;9.166;2023-10-13T20:53:34;25.10;60.90
6752;DHT22;3413;47.680;9.166;2023-10-13T20:58:36;25.00;60.90
6752;DHT22;3413;47.680;9.166;2023-10-13T21:03:39;24.90;60.90
6752;DHT22;3413;47.680;9.166;2023-10-13T21:08:43;24.80;60.90
6752;DHT22;3413;47.680;9.166;2023-10-13T21:13:48;24.60;60.90
6752;DHT22;3413;47.680;9.166;2023-10-13T21:18:53;24.50;61.00
6752;DHT22;3413;47.680;9.166;2023-10-13T21:23:55;24.40;61.20
6752;DHT22;3413;47.680;9.166;2023-10-13T21:28:57;24.30;61.10
6752;DHT22;3413;47.680;9.166;2023-10-13T21:33:59;24.20;61.10
6752;DHT22;3413;47.680;9.166;2023-10-13T21:39:07;24.00;61.10
6752;DHT22;3413;47.680;9.166;2023-10-13T21:44:12;24.00;61.20
6752;DHT22;3413;47.680;9.166;2023-10-13T21:49:15;24.00;61.20
6752;DHT22;3413;47.680;9.166;2023-10-13T21:54:20;24.00;61.20
6752;DHT22;3413;47.680;9.166;2023-10-13T21:59:22;23.90;61.10
6752;DHT22;3413;47.680;9.166;2023-10-13T22:04:24;23.90;61.10
6752;DHT22;3413;47.680;9.166;2023-10-13T22:09:32;23.90;61.10
6752;DHT22;3413;47.680;9.166;2023-10-13T22:14:34;23.90;61.00
6752;DHT22;3413;47.680;9.166;2023-10-13T22:19:36;23.90;61.10
6752;DHT22;3413;47.680;9.166;2023-10-13T22:24:40;23.90;61.10
6752;DHT22;3413;47.680;9.166;2023-10-13T22:29:43;23.80;61.20
6752;DHT22;3413;47.680;9.166;2023-10-13T22:34:45;23.70;61.10
6752;DHT22;3413;47.680;9.166;2023-10-13T22:39:47;23.60;61.20
6752;DHT22;3413;47.680;9.166;2023-10-13T22:44:49;23.50;61.10
6752;DHT22;3413;47.680;9.166;2023-10-13T22:49:51;23.50;61.30
6752;DHT22;3413;47.680;9.166;2023-10-13T22:54:53;23.40;61.30
6752;DHT22;3413;47.680;9.166;2023-10-13T22:59:55;23.30;61.30
6752;DHT22;3413;47.680;9.166;2023-10-13T23:04:57;23.30;61.30
6752;DHT22;3413;47.680;9.166;2023-10-13T23:10:00;23.30;61.40
6752;DHT22;3413;47.680;9.166;2023-10-13T23:15:02;23.30;61.50
6752;DHT22;3413;47.680;9.166;2023-10-13T23:20:10;23.30;61.50
6752;DHT22;3413;47.680;9.166;2023-10-13T23:25:13;23.30;61.40
6752;DHT22;3413;47.680;9.166;2023-10-13T23:30:15;23.30;61.50
6752;DHT22;3413;47.680;9.166;2023-10-13T23:35:18;23.40;61.90
6752;DHT22;3413;47.680;9.166;2023-10-13T23:40:20;23.50;61.60
6752;DHT22;3413;47.680;9.166;2023-10-13T23:45:34;23.60;61.50
6752;DHT22;3413;47.680;9.166;2023-10-13T23:50:45;23.70;61.70
6752;DHT22;3413;47.680;9.166;2023-10-13T23:56:08;23.80;61.80
